Time;durP1;ratioP1;P1;durP2;ratioP2;P2;SDS_P1;SDS_P2;PMS_P1;PMS_P2;Temp;Humidity;BMP_temperature;BMP_pressure;BME280_temperature;BME280_humidity;BME280_pressure;Samples;Min_cycle;Max_cycle;Signal;HPM_P1;HPM_P2
2022/09/01 00:00:01;;;;;;;2.22;0.70;;;;;;;16.58;63.67;101609.09;5034812;28;20045;-61
2022/09/01 00:02:29;;;;;;;1.65;0.70;;;;;;;16.61;63.59;101614.19;5050981;28;20040;-64
2022/09/01 00:04:57;;;;;;;2.20;1.05;;;;;;;16.55;64.92;101609.31;5049718;28;20433;-64
2022/09/01 00:07:28;;;;;;;1.45;0.80;;;;;;;16.48;64.57;101617.78;5054708;28;20071;-63
2022/09/01 00:09:56;;;;;;;1.20;0.70;;;;;;;16.42;64.48;101611.09;5052551;28;20413;-62
2022/09/01 00:12:24;;;;;;;1.90;0.90;;;;;;;16.41;64.03;101612.06;5037500;28;20275;-62
2022/09/01 00:14:52;;;;;;;2.10;0.95;;;;;;;16.40;65.29;101613.00;5047958;28;20197;-64
2022/09/01 00:17:19;;;;;;;3.22;1.00;;;;;;;16.38;64.15;101617.56;5054968;28;20136;-63
2022/09/01 00:19:46;;;;;;;1.50;0.82;;;;;;;16.40;64.93;101613.00;5055207;28;20440;-64
2022/09/01 00:22:13;;;;;;;2.75;0.52;;;;;;;16.34;64.75;101621.38;5055156;28;20064;-64
2022/09/01 00:24:40;;;;;;;1.10;0.65;;;;;;;16.33;64.53;101611.72;5055448;28;20049;-63
2022/09/01 00:27:08;;;;;;;1.50;0.80;;;;;;;16.40;63.71;101616.53;5047242;28;20057;-60
2022/09/01 00:29:35;;;;;;;1.17;0.60;;;;;;;16.46;63.25;101610.78;5049164;28;20076;-63
2022/09/01 00:32:03;;;;;;;3.35;0.75;;;;;;;16.49;63.48;101616.84;5053859;28;20040;-63
2022/09/01 00:34:30;;;;;;;1.67;1.05;;;;;;;16.42;63.98;101611.09;5055856;28;20049;-64
2022/09/01 00:36:57;;;;;;;2.22;0.73;;;;;;;16.39;64.27;101616.59;5037141;28;20052;-64
2022/09/01 00:39:25;;;;;;;1.42;0.80;;;;;;;16.29;64.17;101607.56;5049515;28;20037;-62
2022/09/01 00:41:52;;;;;;;2.90;0.88;;;;;;;16.34;63.47;101616.06;5050011;28;20071;-64
2022/09/01 00:44:26;;;;;;;3.78;0.90;;;;;;;16.34;63.57;101616.91;5045633;28;20159;-62
2022/09/01 00:46:56;;;;;;;1.30;0.80;;;;;;;16.37;63.30;101610.56;5051798;28;20075;-64
2022/09/01 00:49:32;;;;;;;1.00;0.70;;;;;;;16.27;65.10;101610.31;5044113;28;20386;-62
2022/09/01 00:52:05;;;;;;;1.38;0.73;;;;;;;16.20;64.45;101609.03;5034077;28;20040;-63
2022/09/01 00:54:35;;;;;;;1.92;0.77;;;;;;;16.19;64.41;101612.63;5047590;28;20133;-64
2022/09/01 00:57:03;;;;;;;2.35;0.88;;;;;;;16.26;64.13;101599.81;5048249;28;20111;-64
2022/09/01 00:59:30;;;;;;;1.83;0.85;;;;;;;16.19;64.26;101608.19;5031162;28;20048;-61
2022/09/01 01:01:58;;;;;;;1.95;0.70;;;;;;;16.17;64.78;101602.13;5031689;28;20053;-63
2022/09/01 01:04:25;;;;;;;2.13;0.90;;;;;;;16.09;64.70;101601.78;5052011;28;20055;-65
2022/09/01 01:07:00;;;;;;;1.38;0.73;;;;;;;16.11;64.41;101605.16;5050535;28;20485;-64
2022/09/01 01:09:31;;;;;;;2.05;0.82;;;;;;;16.12;64.71;101609.56;5055330;28;20057;-65
2022/09/01 01:11:59;;;;;;;2.28;0.77;;;;;;;16.02;65.96;101611.09;5037554;28;20056;-63
2022/09/01 01:14:30;;;;;;;1.63;0.90;;;;;;;15.95;66.48;101605.34;5034527;28;20057;-64
2022/09/01 01:16:59;;;;;;;1.55;0.60;;;;;;;15.98;65.06;101603.44;5031273;28;20271;-64
2022/09/01 01:23:01;;;;;;;1.63;0.80;;;;;;;16.09;64.16;101607.09;5033177;28;20052;-65
2022/09/01 01:25:34;;;;;;;1.83;0.93;;;;;;;16.02;65.05;101603.13;5040224;28;20056;-63
2022/09/01 01:28:15;;;;;;;2.20;0.73;;;;;;;16.03;65.39;101612.81;5017006;28;20126;-63
2022/09/01 01:30:51;;;;;;;2.30;1.13;;;;;;;15.91;65.49;101603.00;5047083;28;20489;-66
2022/09/01 01:33:21;;;;;;;1.10;0.60;;;;;;;15.89;65.80;101608.38;5061127;28;20411;-65
2022/09/01 01:35:51;;;;;;;2.08;0.70;;;;;;;15.87;65.84;101609.47;5052676;28;20152;-64
2022/09/01 01:38:21;;;;;;;1.42;0.60;;;;;;;15.79;66.71;101609.94;5056117;28;20059;-64
2022/09/01 01:40:50;;;;;;;1.08;0.70;;;;;;;15.82;66.22;101606.25;5048986;28;20504;-64
2022/09/01 01:43:21;;;;;;;1.27;0.80;;;;;;;15.88;65.86;101603.19;5042115;28;21498;-64
2022/09/01 01:45:51;;;;;;;1.70;0.80;;;;;;;15.87;65.45;101604.16;5048220;28;20377;-64
2022/09/01 01:48:23;;;;;;;2.50;0.85;;;;;;;15.81;66.41;101593.94;5053917;28;20132;-65
2022/09/01 01:50:52;;;;;;;2.05;0.73;;;;;;;15.80;65.79;101597.53;5044407;28;20524;-65
2022/09/01 01:53:19;;;;;;;1.17;0.73;;;;;;;15.74;67.69;101600.59;5053912;28;20067;-65
2022/09/01 01:55:48;;;;;;;4.13;0.90;;;;;;;15.66;66.50;101596.63;5050179;28;20134;-63
2022/09/01 01:58:19;;;;;;;2.13;1.20;;;;;;;15.75;65.81;101596.97;5048563;28;20592;-64
2022/09/01 02:00:49;;;;;;;1.90;0.70;;;;;;;15.77;67.04;101595.09;5028283;28;20090;-64
2022/09/01 02:03:20;;;;;;;1.13;0.73;;;;;;;15.73;65.97;101593.59;5055141;28;20417;-64
2022/09/01 02:05:49;;;;;;;3.70;0.75;;;;;;;15.80;66.05;101595.72;5047493;28;20036;-65
2022/09/01 02:08:19;;;;;;;2.33;0.70;;;;;;;15.81;65.64;101596.59;5031716;28;20420;-64
2022/09/01 02:10:49;;;;;;;1.52;0.68;;;;;;;15.79;66.41;101603.78;5054628;28;20044;-65
2022/09/01 02:13:21;;;;;;;3.90;1.00;;;;;;;15.73;66.96;101604.19;5049974;28;20053;-62
2022/09/01 02:15:52;;;;;;;3.58;0.80;;;;;;;15.69;66.40;101604.41;5042153;28;20048;-64
2022/09/01 02:18:23;;;;;;;1.15;0.70;;;;;;;15.68;66.94;101600.03;5045420;28;20059;-66
2022/09/01 02:20:52;;;;;;;4.10;1.70;;;;;;;15.58;69.19;101603.34;5056144;28;20052;-64
2022/09/01 02:23:23;;;;;;;1.92;0.80;;;;;;;15.49;67.64;101601.28;5044416;28;20062;-63
2022/09/01 02:25:54;;;;;;;1.30;0.93;;;;;;;15.50;67.54;101598.53;5050821;28;21069;-66
2022/09/01 02:28:42;;;;;;;4.10;1.15;;;;;;;15.48;67.21;101603.06;5046212;28;20049;-61
2022/09/01 02:31:10;;;;;;;1.77;1.00;;;;;;;15.52;68.24;101595.78;5057273;28;20052;-64
2022/09/01 02:33:39;;;;;;;2.88;0.98;;;;;;;15.42;69.26;101598.19;5033333;28;20053;-64
2022/09/01 02:36:11;;;;;;;2.75;0.90;;;;;;;15.36;69.99;101596.78;5051965;28;20060;-64
2022/09/01 02:38:41;;;;;;;3.00;1.05;;;;;;;15.27;69.80;101594.69;5044154;28;20068;-64
2022/09/01 02:41:13;;;;;;;1.65;0.82;;;;;;;15.31;68.61;101595.34;5046989;28;20044;-63
2022/09/01 02:43:45;;;;;;;1.23;0.85;;;;;;;15.37;67.94;101594.97;5047207;28;20059;-64
2022/09/01 02:46:13;;;;;;;1.98;0.85;;;;;;;15.35;69.19;101597.69;5053361;28;20140;-63
2022/09/01 02:48:44;;;;;;;3.65;0.80;;;;;;;15.19;71.17;101595.19;5042952;28;20076;-62
2022/09/01 02:51:15;;;;;;;1.88;0.80;;;;;;;15.15;69.62;101583.06;5052242;28;20059;-64
2022/09/01 02:53:44;;;;;;;1.15;0.80;;;;;;;15.13;69.63;101584.09;5052890;28;20045;-63
2022/09/01 02:56:13;;;;;;;2.20;0.80;;;;;;;15.17;69.49;101589.13;5020265;28;20053;-63
2022/09/01 02:58:45;;;;;;;1.52;0.90;;;;;;;14.99;70.91;101584.94;5044907;28;20095;-63
2022/09/01 03:01:21;;;;;;;1.30;0.90;;;;;;;14.87;71.51;101588.38;5050133;28;20057;-63
2022/09/01 03:03:50;;;;;;;2.88;0.98;;;;;;;14.84;71.08;101591.22;5035834;28;20051;-64
2022/09/01 03:06:19;;;;;;;2.33;1.00;;;;;;;14.82;72.69;101585.16;5049465;28;20055;-64
2022/09/01 03:08:47;;;;;;;1.42;1.00;;;;;;;14.71;71.87;101582.31;5052981;28;20469;-63
2022/09/01 03:11:15;;;;;;;2.90;1.40;;;;;;;14.67;72.28;101587.78;5058344;28;20528;-62
2022/09/01 03:13:42;;;;;;;2.60;1.48;;;;;;;14.63;72.13;101586.28;5049216;28;20045;-64
2022/09/01 03:16:10;;;;;;;3.05;1.17;;;;;;;14.69;71.46;101590.34;5044332;28;20049;-63
2022/09/01 03:18:38;;;;;;;1.98;1.15;;;;;;;14.72;72.75;101581.34;5059578;28;20058;-62
2022/09/01 03:21:08;;;;;;;2.67;1.33;;;;;;;14.50;72.91;101582.66;5035065;28;20119;-62
2022/09/01 03:23:36;;;;;;;2.58;1.23;;;;;;;14.51;71.81;101583.53;5048877;28;20053;-64
2022/09/01 03:26:03;;;;;;;1.65;1.10;;;;;;;14.45;72.57;101582.03;5047135;28;20063;-63
2022/09/01 03:28:31;;;;;;;2.95;1.00;;;;;;;14.42;72.57;101576.94;5032662;28;20041;-63
2022/09/01 03:30:59;;;;;;;2.00;0.80;;;;;;;14.40;72.45;101578.81;5047614;28;20420;-62
2022/09/01 03:33:27;;;;;;;6.80;1.70;;;;;;;14.46;72.75;101577.63;5046545;28;20056;-63
2022/09/01 03:35:54;;;;;;;3.22;1.10;;;;;;;14.38;73.99;101580.72;5048344;28;20564;-63
2022/09/01 03:38:23;;;;;;;4.78;1.27;;;;;;;14.37;73.82;101579.88;5053652;28;20056;-64
2022/09/01 03:40:59;;;;;;;3.63;1.23;;;;;;;14.26;74.72;101574.34;5059458;28;20053;-63
2022/09/01 03:43:31;;;;;;;2.20;1.20;;;;;;;14.14;75.59;101583.03;5047818;28;20439;-64
2022/09/01 03:46:02;;;;;;;2.70;1.50;;;;;;;14.07;75.31;101581.66;5040572;28;20049;-64
2022/09/01 03:48:30;;;;;;;2.90;1.27;;;;;;;14.03;75.32;101582.78;5049980;28;20036;-64
2022/09/01 03:51:01;;;;;;;4.60;1.50;;;;;;;14.06;74.49;101585.25;5058366;28;20049;-64
2022/09/01 03:53:34;;;;;;;2.25;1.00;;;;;;;14.05;74.77;101589.72;5046506;28;20054;-63
2022/09/01 03:56:02;;;;;;;3.30;1.20;;;;;;;13.91;75.92;101585.22;5048640;28;20059;-65
2022/09/01 03:58:30;;;;;;;3.22;1.35;;;;;;;13.91;75.66;101579.91;5054714;28;20053;-65
2022/09/01 04:00:59;;;;;;;3.83;1.48;;;;;;;13.93;75.16;101575.38;5049980;28;20049;-63
2022/09/01 04:03:31;;;;;;;3.67;1.25;;;;;;;13.84;76.29;101575.06;5047419;28;20053;-65
2022/09/01 04:05:59;;;;;;;3.45;1.42;;;;;;;13.83;75.52;101581.31;5018295;28;20060;-65
2022/09/01 04:08:30;;;;;;;3.53;1.23;;;;;;;13.85;76.09;101576.75;5047978;28;20052;-64
2022/09/01 04:11:10;;;;;;;2.25;1.20;;;;;;;13.80;76.35;101578.81;5051733;28;20061;-64
2022/09/01 04:13:39;;;;;;;1.90;1.25;;;;;;;13.83;76.68;101578.66;5048234;28;20052;-65
2022/09/01 04:18:03;;;;;;;2.92;1.00;;;;;;;13.75;76.65;101579.09;5050265;28;20063;-65
2022/09/01 04:19:00;;;;;;;2.78;1.10;;;;;;;13.66;78.51;101575.16;5044259;28;20044;-63
2022/09/01 04:21:29;;;;;;;4.65;1.10;;;;;;;13.63;76.22;101571.84;5048654;28;20046;-65
2022/09/01 04:24:04;;;;;;;2.03;1.30;;;;;;;13.71;75.76;101579.34;5049576;28;20513;-64
2022/09/01 04:26:32;;;;;;;2.80;1.20;;;;;;;13.71;76.54;101571.41;5047654;28;20358;-65
2022/09/01 04:28:59;;;;;;;4.55;1.40;;;;;;;13.69;75.86;101571.50;5043377;28;20056;-64
2022/09/01 04:31:29;;;;;;;3.25;1.20;;;;;;;13.71;76.47;101574.06;5043974;28;20071;-65
2022/09/01 04:33:57;;;;;;;3.33;1.45;;;;;;;13.74;76.46;101576.53;5048523;28;20512;-63
2022/09/01 04:36:28;;;;;;;3.17;1.48;;;;;;;13.75;76.17;101580.88;5048031;28;20049;-63
2022/09/01 04:38:59;;;;;;;5.07;1.40;;;;;;;13.76;75.63;101574.63;5046175;28;20432;-64
2022/09/01 04:41:31;;;;;;;3.30;1.20;;;;;;;13.72;77.17;101576.59;5046080;28;20056;-65
2022/09/01 04:44:03;;;;;;;3.25;1.45;;;;;;;13.61;77.52;101576.38;5043648;28;20057;-61
2022/09/01 04:46:34;;;;;;;3.25;1.30;;;;;;;13.61;77.85;101579.88;5042466;28;20587;-65
2022/09/01 04:49:06;;;;;;;3.60;1.52;;;;;;;13.61;77.99;101579.00;5042176;28;20532;-64
2022/09/01 04:51:41;;;;;;;3.95;1.23;;;;;;;13.60;77.22;101585.25;5026905;28;20064;-63
2022/09/01 04:54:13;;;;;;;8.95;2.42;;;;;;;13.64;75.88;101577.06;5045863;28;20077;-64
2022/09/01 04:56:43;;;;;;;5.07;1.38;;;;;;;13.63;75.81;101580.63;5047466;28;20056;-66
2022/09/01 04:59:11;;;;;;;2.78;1.20;;;;;;;13.62;75.70;101580.72;5050009;28;20077;-65
2022/09/01 05:01:42;;;;;;;4.03;1.67;;;;;;;13.66;75.44;101577.81;5049601;28;20159;-64
2022/09/01 05:04:15;;;;;;;16.73;2.35;;;;;;;13.65;75.30;101577.91;5041402;28;20049;-63
2022/09/01 05:06:45;;;;;;;2.35;0.90;;;;;;;13.57;76.04;101580.97;5025792;28;20045;-64
2022/09/01 05:09:12;;;;;;;4.72;1.40;;;;;;;13.48;77.83;101585.94;5040271;28;20051;-66
2022/09/01 05:11:44;;;;;;;2.53;1.20;;;;;;;13.45;76.70;101586.94;5045540;28;20056;-66
2022/09/01 05:14:12;;;;;;;6.68;1.92;;;;;;;13.52;76.69;101587.47;5036654;28;20049;-65
2022/09/01 05:16:42;;;;;;;2.67;1.40;;;;;;;13.56;75.91;101583.72;5028212;28;20056;-64
2022/09/01 05:19:13;;;;;;;3.00;1.30;;;;;;;13.55;75.83;101584.63;5049683;28;20605;-64
2022/09/01 05:21:44;;;;;;;6.30;1.23;;;;;;;13.57;77.23;101582.78;5043849;28;20051;-64
2022/09/01 05:24:20;;;;;;;5.00;1.20;;;;;;;13.54;76.12;101586.44;5044619;28;20049;-65
2022/09/01 05:26:49;;;;;;;2.00;1.40;;;;;;;13.62;75.74;101580.72;5046286;28;20052;-66
2022/09/01 05:29:16;;;;;;;4.38;1.40;;;;;;;13.59;76.05;101580.88;5022352;28;20390;-64
2022/09/01 05:31:46;;;;;;;3.78;1.52;;;;;;;13.62;76.17;101578.91;5043953;28;20319;-67
2022/09/01 05:34:21;;;;;;;6.38;1.20;;;;;;;13.68;75.92;101580.34;5026215;28;20045;-65
2022/09/01 05:36:50;;;;;;;2.35;1.15;;;;;;;13.73;76.31;101588.88;5036828;28;20523;-67
2022/09/01 05:39:18;;;;;;;5.00;1.40;;;;;;;13.67;76.68;101583.94;5045613;28;20556;-65
2022/09/01 05:41:46;;;;;;;3.70;1.27;;;;;;;13.60;77.31;101586.09;5014742;28;20051;-66
2022/09/01 05:44:15;;;;;;;5.53;1.27;;;;;;;13.60;77.29;101582.59;5026229;28;20071;-66
2022/09/01 05:46:43;;;;;;;5.03;1.40;;;;;;;13.67;76.24;101584.81;5052171;28;20080;-63
2022/09/01 05:49:12;;;;;;;5.57;1.38;;;;;;;13.70;78.92;101591.72;5038990;28;20065;-64
2022/09/01 05:51:42;;;;;;;2.53;1.13;;;;;;;13.66;78.87;101596.34;5043919;28;20045;-64
2022/09/01 05:54:13;;;;;;;7.15;1.73;;;;;;;13.72;78.83;101599.56;5051470;28;20048;-65
2022/09/01 05:56:41;;;;;;;3.42;1.17;;;;;;;13.70;78.71;101594.38;5043390;28;20059;-65
2022/09/01 05:59:12;;;;;;;1.85;1.00;;;;;;;13.75;78.35;101594.09;5043810;28;20080;-64
2022/09/01 06:01:54;;;;;;;3.67;1.40;;;;;;;13.76;78.41;101591.38;5047256;28;20057;-63
2022/09/01 06:04:24;;;;;;;9.70;1.42;;;;;;;13.82;78.24;101590.16;5056754;28;20581;-65
2022/09/01 06:06:52;;;;;;;3.85;1.10;;;;;;;13.90;77.97;101590.56;5045810;28;20060;-65
2022/09/01 06:09:39;;;;;;;2.80;1.55;;;;;;;13.93;77.54;101593.91;5052447;28;20360;-65
2022/09/01 06:12:08;;;;;;;3.75;1.23;;;;;;;13.99;76.85;101597.13;5055885;28;20052;-64
2022/09/01 06:14:35;;;;;;;9.75;1.55;;;;;;;14.04;77.85;101597.72;5042688;28;20123;-65
2022/09/01 06:17:02;;;;;;;4.03;1.80;;;;;;;14.12;76.78;101595.50;5051525;28;20049;-64
2022/09/01 06:19:32;;;;;;;3.60;1.40;;;;;;;14.23;76.53;101594.84;5060143;28;20048;-65
2022/09/01 06:22:03;;;;;;;2.50;1.35;;;;;;;14.32;76.69;101600.47;5051475;28;20045;-65
2022/09/01 06:24:31;;;;;;;3.45;1.50;;;;;;;14.38;77.14;101597.47;5049868;28;20045;-65
2022/09/01 06:26:58;;;;;;;4.95;1.30;;;;;;;14.46;78.48;101594.38;5054072;28;20041;-65
2022/09/01 06:29:25;;;;;;;9.05;1.85;;;;;;;14.48;77.42;101594.25;5049831;28;20068;-64
2022/09/01 06:31:52;;;;;;;5.28;1.38;;;;;;;14.53;76.50;101592.22;5047461;28;20716;-66
2022/09/01 06:34:19;;;;;;;3.78;1.10;;;;;;;14.59;76.31;101599.78;5052649;28;20053;-64
2022/09/01 06:36:48;;;;;;;2.25;1.00;;;;;;;14.65;76.18;101600.28;5050736;28;20063;-64
2022/09/01 06:39:18;;;;;;;4.32;1.35;;;;;;;14.69;75.73;101599.16;5049923;28;20057;-65
2022/09/01 06:41:51;;;;;;;5.28;1.35;;;;;;;14.77;75.80;101605.78;5036115;28;20056;-64
2022/09/01 06:44:21;;;;;;;4.78;1.10;;;;;;;14.84;76.91;101607.13;5051676;28;20052;-67
2022/09/01 06:46:51;;;;;;;2.75;1.08;;;;;;;14.87;76.09;101606.94;5052128;28;20496;-65
2022/09/01 06:49:23;;;;;;;2.28;1.00;;;;;;;14.94;75.07;101605.59;5032439;28;20056;-64
2022/09/01 06:51:51;;;;;;;2.92;1.00;;;;;;;15.04;75.63;101606.75;5051108;28;20149;-65
2022/09/01 06:54:18;;;;;;;2.78;1.05;;;;;;;15.07;75.16;101600.38;5051620;28;20068;-65
2022/09/01 06:56:47;;;;;;;1.77;0.80;;;;;;;15.14;74.19;101607.88;5059200;28;20045;-66
2022/09/01 06:59:19;;;;;;;2.35;1.10;;;;;;;15.26;73.36;101616.00;5057102;28;20065;-65
2022/09/01 07:01:47;;;;;;;3.53;0.82;;;;;;;15.33;73.57;101615.53;5016471;28;20055;-65
2022/09/01 07:04:20;;;;;;;4.47;1.00;;;;;;;15.38;72.89;101610.78;5054328;28;20057;-64
2022/09/01 07:06:51;;;;;;;2.42;0.90;;;;;;;15.46;73.26;101615.59;5056200;28;20064;-66
2022/09/01 07:09:28;;;;;;;3.92;1.15;;;;;;;15.57;72.32;101610.44;5029955;28;20041;-65
2022/09/01 07:12:18;;;;;;;1.65;0.82;;;;;;;15.64;71.57;101617.13;5056123;28;20053;-64
2022/09/01 07:14:55;;;;;;;3.20;0.95;;;;;;;15.72;70.93;101611.31;5028760;28;20072;-66
2022/09/01 07:17:48;;;;;;;2.85;0.70;;;;;;;15.83;71.23;101615.91;5043898;28;20045;-62
2022/09/01 07:20:16;;;;;;;1.40;0.80;;;;;;;15.88;71.19;101619.97;5030800;28;20049;-67
2022/09/01 07:22:53;;;;;;;4.43;1.55;;;;;;;15.93;71.04;101622.31;5051326;28;20049;-63
2022/09/01 07:25:41;;;;;;;2.33;1.27;;;;;;;15.99;71.45;101618.44;5045695;28;20478;-64
2022/09/01 07:28:31;;;;;;;3.38;0.95;;;;;;;16.08;70.46;101623.16;5045197;28;20592;-64
2022/09/01 07:31:07;;;;;;;5.07;1.08;;;;;;;16.15;70.02;101621.75;5054549;28;20036;-65
2022/09/01 07:33:58;;;;;;;1.77;0.90;;;;;;;16.20;70.33;101617.84;5046222;28;20060;-64
2022/09/01 07:36:45;;;;;;;2.20;1.10;;;;;;;16.27;69.94;101622.75;5050910;28;20501;-65
2022/09/01 07:39:32;;;;;;;3.15;1.38;;;;;;;16.33;70.42;101625.00;5044372;28;20053;-65
2022/09/01 07:42:18;;;;;;;2.47;0.88;;;;;;;16.39;69.99;101616.59;5050510;28;20117;-63
2022/09/01 07:45:07;;;;;;;3.47;1.08;;;;;;;16.44;70.33;101614.50;5052503;28;20037;-64
2022/09/01 07:47:55;;;;;;;1.17;0.80;;;;;;;16.50;69.56;101621.22;5056081;28;20049;-63
2022/09/01 07:50:25;;;;;;;2.25;0.77;;;;;;;16.60;69.20;101623.13;5052394;28;20072;-64
2022/09/01 07:53:08;;;;;;;2.65;0.88;;;;;;;16.65;69.24;101621.00;5050561;28;20084;-64
2022/09/01 07:55:40;;;;;;;2.85;0.93;;;;;;;16.73;68.84;101615.19;5052741;28;20505;-63
2022/09/01 07:58:10;;;;;;;2.00;0.80;;;;;;;16.79;68.88;101629.88;5047622;28;20147;-64
2022/09/01 08:00:44;;;;;;;4.53;0.98;;;;;;;16.82;68.32;101630.50;5043377;28;20339;-65
2022/09/01 08:03:13;;;;;;;2.03;0.88;;;;;;;16.89;68.36;101628.28;5033954;28;20061;-64
2022/09/01 08:05:40;;;;;;;1.25;0.68;;;;;;;16.94;68.31;101629.66;5050591;28;20417;-63
2022/09/01 08:08:07;;;;;;;2.42;0.90;;;;;;;17.00;68.61;101630.19;5049645;28;20067;-64
2022/09/01 08:10:55;;;;;;;8.20;1.00;;;;;;;17.07;68.35;101631.47;5050043;28;20056;-64
2022/09/01 08:13:31;;;;;;;2.67;0.90;;;;;;;17.13;67.93;101626.56;5057938;28;20239;-66
2022/09/01 08:16:08;;;;;;;6.03;0.98;;;;;;;17.21;67.74;101629.53;5048137;28;20050;-64
2022/09/01 08:18:44;;;;;;;2.97;0.80;;;;;;;17.29;68.11;101634.31;5027778;28;20060;-64
2022/09/01 08:21:17;;;;;;;3.05;0.93;;;;;;;17.39;66.96;101635.38;5045242;28;20548;-65
2022/09/01 08:23:44;;;;;;;4.50;0.90;;;;;;;17.40;65.92;101628.22;5050154;28;20057;-64
2022/09/01 08:26:13;;;;;;;3.75;0.85;;;;;;;17.41;66.53;101628.09;5033013;28;20052;-64
2022/09/01 08:28:41;;;;;;;7.35;0.90;;;;;;;17.49;66.45;101630.22;5059141;28;20048;-64
2022/09/01 08:31:14;;;;;;;2.58;0.90;;;;;;;17.57;65.45;101630.53;5051124;28;20051;-65
2022/09/01 08:33:44;;;;;;;1.50;0.70;;;;;;;17.68;65.43;101627.91;5050313;28;20045;-65
2022/09/01 08:36:12;;;;;;;2.25;0.70;;;;;;;17.76;65.11;101623.91;5050564;28;20555;-65
2022/09/01 08:38:41;;;;;;;2.80;0.60;;;;;;;17.83;64.58;101631.34;5053812;28;20409;-63
2022/09/01 08:41:45;;;;;;;2.15;0.70;;;;;;;17.88;64.23;101626.50;5041758;28;20053;-64
2022/09/01 08:44:48;;;;;;;1.33;1.02;;;;;;;17.96;64.22;101631.25;5044343;28;20057;-65
2022/09/01 08:47:17;;;;;;;2.97;0.80;;;;;;;18.04;64.02;101620.88;5023002;28;20087;-65
2022/09/01 08:49:58;;;;;;;6.72;1.08;;;;;;;18.12;63.48;101626.50;5061252;28;20064;-64
2022/09/01 08:52:30;;;;;;;3.15;0.80;;;;;;;18.20;63.62;101617.94;5037707;28;20053;-65
2022/09/01 08:55:19;;;;;;;3.60;1.05;;;;;;;18.27;62.57;101618.31;5055348;28;20045;-65
2022/09/01 08:57:50;;;;;;;1.00;0.70;;;;;;;18.31;62.07;101630.44;5032549;28;20441;-63
2022/09/01 09:00:27;;;;;;;1.58;0.80;;;;;;;18.36;62.46;101631.78;5036826;28;20049;-64
2022/09/01 09:03:12;;;;;;;2.00;0.70;;;;;;;18.40;62.57;101619.91;5049918;28;20048;-65
2022/09/01 09:06:02;;;;;;;1.85;0.70;;;;;;;18.48;61.81;101617.53;5052642;28;20053;-62
2022/09/01 09:08:56;;;;;;;2.90;0.90;;;;;;;18.56;61.40;101619.63;5058170;28;20051;-65
2022/09/01 09:11:49;;;;;;;3.13;0.80;;;;;;;18.65;60.68;101623.41;5029306;28;20045;-65
2022/09/01 09:14:40;;;;;;;2.40;0.68;;;;;;;18.66;60.88;101619.75;5049273;28;20080;-65
2022/09/01 09:17:08;;;;;;;1.63;0.70;;;;;;;18.63;60.25;101617.31;5050144;28;20551;-64
2022/09/01 09:19:45;;;;;;;1.60;0.68;;;;;;;18.63;59.33;101610.16;5049434;28;20509;-65
2022/09/01 09:22:16;;;;;;;1.92;0.82;;;;;;;18.68;59.48;101615.97;5057958;28;20437;-65
2022/09/01 09:24:50;;;;;;;2.55;0.93;;;;;;;18.80;60.28;101619.56;5050369;28;20128;-65
2022/09/01 09:27:19;;;;;;;;;;;;;;;18.90;60.04;101606.34;5046310;28;20064;-65
2022/09/01 09:30:00;;;;;;;0.75;0.60;;;;;;;19.03;59.08;101611.56;5048795;28;19927;-65
2022/09/01 09:32:52;;;;;;;2.13;0.60;;;;;;;19.17;58.76;101614.00;5048255;28;20210;-65
2022/09/01 09:35:41;;;;;;;1.55;0.50;;;;;;;19.24;56.68;101612.53;5025705;28;20052;-64
2022/09/01 09:38:31;;;;;;;1.45;0.75;;;;;;;19.25;55.89;101606.22;5049107;28;20171;-65
2022/09/01 09:41:03;;;;;;;1.67;0.90;;;;;;;19.33;57.33;101605.63;5048555;28;20053;-64
2022/09/01 09:43:59;;;;;;;3.58;1.20;;;;;;;19.44;58.03;101614.44;5033891;28;20041;-63
2022/09/01 09:46:34;;;;;;;2.83;0.90;;;;;;;19.48;56.17;101609.72;5043934;28;20049;-65
2022/09/01 09:49:08;;;;;;;2.20;0.70;;;;;;;19.44;56.72;101616.28;5051559;28;20053;-63
2022/09/01 09:51:38;;;;;;;1.23;0.50;;;;;;;19.45;57.12;101610.81;5051265;28;20089;-65
2022/09/01 09:54:13;;;;;;;1.00;0.60;;;;;;;19.53;55.14;101607.50;5042309;28;20056;-65
2022/09/01 09:56:43;;;;;;;;;;;;;;;19.63;55.95;101604.97;5036370;28;20045;-63
2022/09/01 09:59:25;;;;;;;2.97;0.68;;;;;;;19.72;55.79;101605.09;5052162;28;19920;-65
2022/09/01 10:02:40;;;;;;;1.90;0.73;;;;;;;19.77;54.96;101606.50;5050600;28;20409;-63
2022/09/01 10:05:26;;;;;;;1.63;0.40;;;;;;;19.79;54.35;101605.44;5040285;28;20382;-63
2022/09/01 10:07:55;;;;;;;1.85;0.60;;;;;;;19.91;55.36;101608.91;5046359;28;20056;-65
2022/09/01 10:10:37;;;;;;;2.05;0.70;;;;;;;20.04;55.23;101604.25;5034433;28;20048;-65
2022/09/01 10:13:10;;;;;;;4.85;0.82;;;;;;;20.11;54.56;101604.56;5052054;28;20055;-64
2022/09/01 10:15:38;;;;;;;3.63;0.90;;;;;;;20.14;55.04;101609.69;5053650;28;20045;-64
2022/09/01 10:18:14;;;;;;;1.52;0.60;;;;;;;20.22;53.71;101608.06;5024910;28;20087;-63
2022/09/01 10:21:36;;;;;;;1.75;0.45;;;;;;;20.32;53.60;101600.09;5055519;28;20424;-64
2022/09/01 10:24:21;;;;;;;4.75;1.23;;;;;;;20.36;50.55;101601.53;5051262;28;20041;-64
2022/09/01 10:26:56;;;;;;;1.42;0.98;;;;;;;20.42;52.15;101593.00;5051494;28;20055;-65
2022/09/01 10:29:33;;;;;;;0.80;0.57;;;;;;;20.47;52.17;101600.63;5020190;28;20061;-62
2022/09/01 10:32:24;;;;;;;0.63;0.50;;;;;;;20.65;51.66;101587.53;5021590;28;20049;-64
2022/09/01 10:35:15;;;;;;;2.63;0.70;;;;;;;20.82;51.52;101600.28;5033585;28;20545;-63
2022/09/01 10:37:46;;;;;;;1.80;0.63;;;;;;;20.99;50.97;101590.81;5043287;28;20060;-64
2022/09/01 10:40:19;;;;;;;1.15;0.57;;;;;;;21.14;52.01;101586.75;5055476;28;20053;-63
2022/09/01 10:42:55;;;;;;;4.85;1.23;;;;;;;21.23;49.00;101590.47;5053453;28;20072;-62
2022/09/01 10:45:30;;;;;;;2.10;0.70;;;;;;;21.29;48.00;101592.59;5041299;28;20383;-65
2022/09/01 10:48:28;;;;;;;1.08;0.60;;;;;;;21.48;49.18;101592.69;5061782;28;20048;-65
2022/09/01 10:51:14;;;;;;;2.45;0.85;;;;;;;21.62;46.17;101590.59;5047562;28;20139;-64
2022/09/01 10:53:59;;;;;;;1.85;0.60;;;;;;;21.78;46.19;101590.03;5036381;28;20501;-64
2022/09/01 10:56:38;;;;;;;1.00;0.70;;;;;;;21.90;46.66;101581.72;5028408;28;20060;-65
2022/09/01 10:59:22;;;;;;;1.13;0.70;;;;;;;21.83;44.55;101590.47;5045137;28;20436;-63
2022/09/01 11:02:23;;;;;;;0.98;0.50;;;;;;;21.89;46.27;101582.72;5042059;28;20136;-64
2022/09/01 11:04:54;;;;;;;1.83;0.95;;;;;;;22.04;45.70;101587.66;5046284;28;20068;-64
2022/09/01 11:07:24;;;;;;;2.70;0.50;;;;;;;22.15;45.53;101583.00;5045125;28;20053;-64
2022/09/01 11:10:35;;;;;;;1.40;0.57;;;;;;;22.32;45.59;101580.59;5044805;28;20057;-64
2022/09/01 11:13:21;;;;;;;2.67;0.73;;;;;;;;;;5029216;28;20115;-64
2022/09/01 11:15:48;;;;;;;3.15;0.60;;;;;;;22.43;44.41;101581.28;5043514;28;20045;-65
2022/09/01 11:18:25;;;;;;;3.00;0.77;;;;;;;22.39;45.40;101581.72;5030238;28;20151;-64
2022/09/01 11:20:54;;;;;;;3.78;0.90;;;;;;;22.24;42.75;101582.19;5039804;28;20240;-64
2022/09/01 11:23:29;;;;;;;2.63;0.80;;;;;;;22.14;45.36;101583.16;5049055;28;20159;-65
2022/09/01 11:26:04;;;;;;;1.45;0.52;;;;;;;22.19;46.42;101581.75;5051442;28;20037;-64
2022/09/01 11:28:46;;;;;;;1.17;0.70;;;;;;;22.39;45.19;101581.72;5026538;28;20056;-64
2022/09/01 11:31:20;;;;;;;1.55;0.63;;;;;;;22.66;44.42;101579.13;5018870;28;20060;-65
2022/09/01 11:33:57;;;;;;;2.00;1.02;;;;;;;22.88;43.42;101574.38;5035822;28;20051;-64
2022/09/01 11:36:47;;;;;;;2.38;0.82;;;;;;;23.10;42.21;101565.97;5047922;28;20397;-65
2022/09/01 11:39:28;;;;;;;1.58;0.60;;;;;;;23.27;42.02;101568.84;5054299;28;20049;-65
2022/09/01 11:42:13;;;;;;;1.75;0.80;;;;;;;23.42;41.82;101567.34;5030584;28;20072;-63
2022/09/01 11:44:47;;;;;;;0.93;0.52;;;;;;;23.45;41.95;101567.03;5024028;28;20045;-64
2022/09/01 11:47:19;;;;;;;1.00;0.70;;;;;;;23.36;41.89;101576.84;5053206;28;20509;-63
2022/09/01 11:49:55;;;;;;;6.10;2.60;;;;;;;23.31;41.01;101578.28;5018305;28;20455;-63
2022/09/01 11:52:26;;;;;;;3.65;2.15;;;;;;;23.10;42.13;101575.84;5050610;28;20067;-63
2022/09/01 11:54:53;;;;;;;7.20;3.85;;;;;;;22.87;40.03;101576.19;5030555;28;20053;-63
2022/09/01 11:57:24;;;;;;;5.05;3.05;;;;;;;22.72;40.87;101572.31;5046603;28;20053;-62
2022/09/01 11:59:52;;;;;;;5.28;2.45;;;;;;;22.54;42.44;101574.91;5044279;28;20071;-62